.
WxDataArchive / Data Records for 2012-08-03
2012-08-02 August 2012 2012-08-04

Data Records for Friday, 03 August 2012

Time	Temp	Chill	HIndex	Humid	Dewpt	 Wind 	HiWind	WindDir	Rain 	Barom 
-----	----	-----	------	-----	-----	------	------	-------	-----	----- 
00:00	72.7	72.7	72.7	65	60.2	0	0	---	0.00	29.827 
00:05	72.5	72.5	72.5	65	60.0	0	0	---	0.00	29.827 
00:10	72.5	72.5	72.5	65	60.0	0	0	---	0.00	29.827 
00:15	72.3	72.3	72.3	64	59.4	0	0	---	0.00	29.822 
00:20	72.3	72.3	72.3	64	59.4	0	0	---	0.00	29.822 
00:25	72.3	72.3	72.3	64	59.4	0	0	---	0.00	29.822 
00:30	72.3	72.3	72.3	65	59.9	0	0	---	0.00	29.827 
00:35	72.3	72.3	72.3	65	59.9	0	0	---	0.00	29.827 
00:40	72.1	72.1	72.1	65	59.7	0	0	---	0.00	29.827 
00:45	72.0	72.0	72.0	66	60.0	0	0	---	0.00	29.829 
00:50	72.0	72.0	72.0	67	60.4	0	0	---	0.00	29.829 
00:55	71.8	71.8	71.8	68	60.7	0	0	---	0.00	29.829 
01:00	71.6	71.6	71.6	68	60.5	0	0	---	0.00	29.831 
01:05	71.5	71.5	71.5	69	60.8	0	0	---	0.00	29.831 
01:10	71.5	71.5	71.5	70	61.2	0	0	---	0.00	29.831 
01:15	71.5	71.5	71.5	73	62.4	0	0	---	0.00	29.829 
01:20	71.5	71.5	71.5	75	63.1	0	0	---	0.00	29.829 
01:25	71.5	71.5	71.5	76	63.5	0	0	---	0.00	29.829 
01:30	71.3	71.3	71.3	76	63.3	0	0	---	0.00	29.833 
01:35	71.1	71.1	71.1	75	62.8	0	0	---	0.00	29.833 
01:40	70.9	70.9	70.9	75	62.6	0	0	---	0.00	29.833 
01:45	70.9	70.9	70.9	75	62.6	0	0	---	0.00	29.844 
01:50	70.8	70.8	70.8	74	62.1	0	0	---	0.00	29.844 
01:55	70.6	70.6	70.6	74	61.9	0	0	---	0.00	29.844 
02:00	70.6	70.6	70.6	74	61.9	0	0	---	0.00	29.847 
02:05	70.4	70.4	70.4	74	61.7	0	0	---	0.00	29.847 
02:10	70.3	70.3	70.3	75	62.0	0	0	---	0.00	29.847 
02:15	70.3	70.3	70.3	75	62.0	0	0	---	0.00	29.850 
02:20	70.1	70.1	70.1	75	61.8	0	0	---	0.00	29.850 
02:25	70.1	70.1	70.1	76	62.2	0	0	---	0.00	29.850 
02:30	69.9	69.9	69.9	76	62.0	0	0	---	0.00	29.851 
02:35	69.9	69.9	69.9	77	62.3	0	0	---	0.00	29.851 
02:40	69.9	69.9	69.9	78	62.7	0	0	---	0.00	29.851 
02:45	69.8	69.8	69.8	79	63.0	0	0	---	0.00	29.847 
02:50	69.8	69.8	69.8	80	63.3	0	0	---	0.00	29.847 
02:55	69.6	69.6	69.6	80	63.1	0	0	---	0.00	29.847 
03:00	69.4	69.4	69.4	80	63.0	0	0	---	0.00	29.848 
03:05	69.3	69.3	69.3	80	62.9	0	0	---	0.00	29.848 
03:10	69.1	69.1	69.1	80	62.7	0	0	---	0.00	29.848 
03:15	68.9	68.9	68.9	80	62.5	0	0	---	0.00	29.848 
03:20	68.8	68.8	68.8	80	62.4	0	0	---	0.00	29.848 
03:25	68.6	68.6	68.6	80	62.2	0	0	---	0.00	29.848 
03:30	68.4	68.4	68.4	79	61.6	0	0	---	0.00	29.849 
03:35	68.4	68.4	68.4	80	62.0	0	0	---	0.00	29.849 
03:40	68.4	68.4	68.4	81	62.3	0	0	---	0.00	29.849 
03:45	68.4	68.4	68.4	81	62.3	0	0	---	0.00	29.849 
03:50	68.4	68.4	68.4	82	62.7	0	0	---	0.00	29.849 
03:55	68.3	68.3	68.3	82	62.6	0	0	---	0.00	29.849 
04:00	68.3	68.3	68.3	83	62.9	0	0	---	0.00	29.845 
04:05	68.1	68.1	68.1	83	62.7	0	0	---	0.00	29.845 
04:10	68.1	68.1	68.1	84	63.1	0	0	---	0.00	29.845 
04:15	67.9	67.9	67.9	84	62.9	0	0	---	0.00	29.845 
04:20	67.8	67.8	67.8	83	62.4	0	0	---	0.00	29.845 
04:25	67.6	67.6	67.6	83	62.2	0	0	---	0.00	29.845 
04:30	67.6	67.6	67.6	83	62.2	0	0	---	0.00	29.845 
04:35	67.4	67.4	67.4	83	62.0	0	0	---	0.00	29.845 
04:40	67.4	67.4	67.4	83	62.0	0	0	---	0.00	29.845 
04:45	67.4	67.4	67.4	83	62.0	0	0	---	0.00	29.844 
04:50	67.3	67.3	67.3	84	62.3	0	0	---	0.00	29.844 
04:55	67.3	67.3	67.3	84	62.3	0	0	---	0.00	29.844 
05:00	67.1	67.1	67.1	84	62.1	0	0	---	0.00	29.837 
05:05	66.9	66.9	66.9	84	61.9	0	0	---	0.00	29.837 
05:10	66.9	66.9	66.9	84	61.9	0	0	---	0.00	29.837 
05:15	66.9	66.9	66.9	83	61.6	0	1	68	0.00	29.839 
05:20	66.9	66.9	66.9	83	61.6	0	0	---	0.00	29.839 
05:25	67.1	67.1	67.1	82	61.4	0	0	---	0.00	29.839 
05:30	67.1	67.1	67.1	81	61.1	0	1	68	0.00	29.837 
05:35	67.1	67.1	67.1	81	61.1	0	0	---	0.00	29.837 
05:40	67.1	67.1	67.1	81	61.1	0	0	---	0.00	29.837 
05:45	67.3	67.3	67.3	81	61.3	0	1	68	0.00	29.843 
05:50	67.3	67.3	67.3	81	61.3	0	0	---	0.00	29.843 
05:55	67.3	67.3	67.3	81	61.3	0	0	---	0.00	29.843 
06:00	67.3	67.3	67.3	81	61.3	0	0	---	0.00	29.846 
06:05	67.1	67.1	67.1	81	61.1	0	0	---	0.00	29.846 
06:10	66.9	66.9	66.9	81	60.9	0	0	---	0.00	29.846 
06:15	66.8	66.8	66.8	82	61.1	0	0	---	0.00	29.847 
06:20	66.6	66.6	66.6	82	60.9	0	0	---	0.00	29.847 
06:25	66.4	66.4	66.4	83	61.1	0	0	---	0.00	29.847 
06:30	66.3	66.3	66.3	83	61.0	0	0	---	0.00	29.848 
06:35	66.1	66.1	66.1	84	61.1	0	0	---	0.00	29.848 
06:40	66.1	66.1	66.1	84	61.1	0	0	---	0.00	29.848 
06:45	66.0	66.0	66.0	85	61.4	0	0	---	0.00	29.848 
06:50	66.0	66.0	66.0	85	61.4	0	0	---	0.00	29.848 
06:55	66.0	66.0	66.0	86	61.7	0	0	---	0.00	29.848 
07:00	66.1	66.1	66.1	86	61.8	0	0	---	0.00	29.852 
07:05	66.3	66.3	66.3	85	61.6	0	0	---	0.00	29.852 
07:10	66.4	66.4	66.4	86	62.1	0	0	---	0.00	29.852 
07:15	66.6	66.6	66.6	85	61.9	0	0	---	0.00	29.860 
07:20	66.9	66.9	66.9	85	62.2	0	0	---	0.00	29.860 
07:25	67.1	67.1	67.1	85	62.4	0	0	---	0.00	29.860 
07:30	67.4	67.4	67.4	84	62.4	0	0	---	0.00	29.865 
07:35	67.8	67.8	67.8	84	62.8	0	1	68	0.00	29.865 
07:40	68.1	68.1	68.1	83	62.7	0	1	68	0.00	29.865 
07:45	68.6	68.6	68.6	82	62.9	0	1	68	0.00	29.867 
07:50	69.3	69.3	69.3	80	62.9	0	2	68	0.00	29.867 
07:55	69.9	69.9	69.9	79	63.1	0	1	68	0.00	29.867 
08:00	70.6	70.6	70.6	78	63.4	0	3	68	0.00	29.879 
08:05	71.1	71.1	71.1	77	63.5	1	3	68	0.00	29.879 
08:10	71.8	71.8	71.8	76	63.8	0	2	68	0.00	29.879 
08:15	72.1	72.1	72.1	75	63.7	1	3	68	0.00	29.881 
08:20	72.8	72.8	72.8	73	63.6	0	1	68	0.00	29.881 
08:25	73.5	73.5	73.5	72	63.9	0	2	68	0.00	29.881 
08:30	74.2	74.2	74.2	71	64.2	0	1	68	0.00	29.880 
08:35	74.9	74.9	74.9	70	64.4	0	1	68	0.00	29.880 
08:40	75.4	75.4	77.1	69	64.5	0	2	68	0.00	29.880 
08:45	75.6	75.6	77.3	69	64.7	0	1	68	0.00	29.886 
08:50	76.0	76.0	77.7	69	65.1	0	1	68	0.00	29.886 
08:55	76.5	76.5	78.3	67	64.7	0	2	68	0.00	29.886 
09:00	77.0	77.0	78.8	68	65.6	0	2	68	0.00	29.891 
09:05	77.6	77.6	79.5	67	65.8	0	1	68	0.00	29.891 
09:10	78.3	78.3	80.2	65	65.5	0	2	68	0.00	29.891 
09:15	78.6	78.6	80.5	64	65.4	0	2	68	0.00	29.893 
09:20	79.4	79.4	81.5	64	66.1	0	1	68	0.00	29.893 
09:25	79.9	79.9	81.9	62	65.7	0	1	68	0.00	29.893 
09:30	80.5	80.5	82.5	61	65.8	0	2	68	0.00	29.890 
09:35	80.7	80.7	82.8	61	66.0	0	2	68	0.00	29.890 
09:40	81.1	81.1	83.3	61	66.4	0	2	68	0.00	29.890 
09:45	81.4	81.4	83.4	59	65.7	0	2	68	0.00	29.887 
09:50	81.6	81.6	83.7	59	65.9	0	1	68	0.00	29.887 
09:55	81.6	81.6	83.7	59	65.9	1	3	68	0.00	29.887 
10:00	81.4	81.4	83.6	60	66.2	1	4	68	0.00	29.886 
10:05	81.1	81.1	83.2	60	65.9	1	3	68	0.00	29.886 
10:10	81.4	81.4	83.4	59	65.7	0	2	68	0.00	29.886 
10:15	82.0	82.0	84.1	58	65.7	0	2	68	0.00	29.892 
10:20	82.6	82.6	84.7	57	65.8	0	2	68	0.00	29.892 
10:25	83.2	83.2	85.6	57	66.4	0	2	68	0.00	29.892 
10:30	84.0	84.0	86.3	55	66.1	0	2	68	0.00	29.885 
10:35	84.5	84.5	86.5	53	65.5	0	2	68	0.00	29.885 
10:40	84.9	84.9	87.1	53	65.8	1	2	68	0.00	29.885 
10:45	85.5	85.5	88.0	53	66.4	0	3	68	0.00	29.888 
10:50	85.9	85.9	88.3	52	66.2	0	1	68	0.00	29.888 
10:55	86.1	86.1	88.6	52	66.4	1	3	68	0.00	29.888 
11:00	86.5	86.5	88.9	51	66.2	1	3	68	0.00	29.891 
11:05	86.7	86.7	89.3	51	66.4	1	2	68	0.00	29.891 
11:10	87.0	87.0	89.7	51	66.6	0	2	68	0.00	29.891 
11:15	87.4	87.4	90.4	51	67.0	0	2	68	0.00	29.890 
11:20	87.8	87.8	90.7	50	66.8	1	2	68	0.00	29.890 
11:25	88.2	88.2	90.7	48	66.0	0	2	68	0.00	29.890 
11:30	88.6	88.6	91.7	49	67.0	1	3	68	0.00	29.889 
11:35	88.6	88.6	91.3	48	66.4	1	3	112	0.00	29.889 
11:40	88.8	88.8	92.4	50	67.7	1	4	112	0.00	29.889 
11:45	88.8	88.8	92.0	49	67.1	1	3	112	0.00	29.890 
11:50	89.3	89.3	92.9	49	67.6	1	3	112	0.00	29.890 
11:55	89.3	89.3	93.3	50	68.2	1	2	112	0.00	29.890 
12:00	89.3	89.3	92.9	49	67.6	2	4	112	0.00	29.892 
12:05	89.0	89.0	92.4	49	67.3	1	3	112	0.00	29.892 
12:10	89.3	89.3	93.3	50	68.2	1	4	90	0.00	29.892 
12:15	89.0	89.0	92.8	50	67.9	2	4	90	0.00	29.891 
12:20	88.8	88.8	92.0	49	67.1	2	5	90	0.00	29.891 
12:25	89.3	89.3	92.9	49	67.6	1	3	135	0.00	29.891 
12:30	89.9	89.9	93.1	47	66.9	1	4	135	0.00	29.889 
12:35	90.5	90.5	93.3	45	66.2	1	3	112	0.00	29.889 
12:40	90.5	90.5	93.8	46	66.8	2	5	112	0.00	29.889 
12:45	90.1	90.1	92.3	44	65.2	3	9	90	0.00	29.889 
12:50	90.1	90.1	92.7	45	65.9	2	5	90	0.00	29.889 
12:55	90.3	90.3	93.0	45	66.0	2	6	90	0.00	29.889 
13:00	90.5	90.5	93.3	45	66.2	2	4	90	0.00	29.889 
13:05	91.0	91.0	92.6	41	64.0	1	6	90	0.00	29.889 
13:10	91.4	91.4	93.2	41	64.3	1	3	112	0.00	29.889 
13:15	91.8	91.8	94.3	42	65.4	1	5	112	0.00	29.885 
13:20	92.5	92.5	94.6	40	64.6	1	2	90	0.00	29.885 
13:25	92.7	92.7	93.7	37	62.6	2	6	90	0.00	29.885 
13:30	92.7	92.7	94.1	38	63.3	1	4	90	0.00	29.881 
13:35	92.9	92.9	94.8	39	64.2	2	4	90	0.00	29.881 
13:40	93.2	93.2	95.3	39	64.5	2	4	90	0.00	29.881 
13:45	92.9	92.9	94.4	38	63.5	2	5	90	0.00	29.876 
13:50	92.5	92.5	92.6	35	60.8	3	12	90	0.00	29.876 
13:55	92.3	92.3	93.4	38	63.0	3	7	68	0.00	29.876 
14:00	92.3	92.3	92.3	35	60.6	2	5	90	0.00	29.880 
14:05	92.5	92.5	93.8	38	63.1	2	9	112	0.00	29.880 
14:10	92.5	92.5	93.4	37	62.4	2	6	90	0.00	29.880 
14:15	92.5	92.5	91.6	32	58.3	2	9	90	0.00	29.875 
14:20	92.5	92.5	92.6	35	60.8	3	9	90	0.00	29.875 
14:25	92.1	92.1	92.4	36	61.3	2	6	90	0.00	29.875 
14:30	92.1	92.1	92.4	36	61.3	4	11	90	0.00	29.876 
14:35	92.3	92.3	92.0	34	59.8	2	4	90	0.00	29.876 
14:40	92.5	92.5	91.9	33	59.2	1	4	90	0.00	29.876 
14:45	92.5	92.5	92.3	34	60.0	3	9	90	0.00	29.876 
14:50	92.5	92.5	92.6	35	60.8	3	9	112	0.00	29.876 
14:55	92.7	92.7	93.3	36	61.8	1	6	90	0.00	29.876 
15:00	93.2	93.2	93.3	34	60.6	2	5	90	0.00	29.872 
15:05	93.2	93.2	93.7	35	61.4	2	6	68	0.00	29.872 
15:10	93.6	93.6	94.3	35	61.8	3	10	112	0.00	29.872 
15:15	93.4	93.4	92.8	32	59.1	4	9	90	0.00	29.877 
15:20	92.9	92.9	93.2	35	61.2	3	7	90	0.00	29.877 
15:25	92.7	92.7	92.9	35	61.0	4	8	90	0.00	29.877 
15:30	92.7	92.7	93.3	36	61.8	2	10	90	0.00	29.876 
15:35	92.5	92.5	92.6	35	60.8	3	11	90	0.00	29.876 
15:40	92.7	92.7	92.5	34	60.2	2	5	90	0.00	29.876 
15:45	93.4	93.4	93.6	34	60.8	1	5	90	0.00	29.874 
15:50	93.8	93.8	93.8	33	60.3	2	4	90	0.00	29.874 
15:55	94.3	94.3	93.8	31	59.0	2	5	45	0.00	29.874 
16:00	94.5	94.5	94.4	32	60.0	2	7	112	0.00	29.873 
16:05	94.0	94.0	94.5	34	61.3	3	10	90	0.00	29.873 
16:10	93.8	93.8	94.2	34	61.1	2	5	90	0.00	29.873 
16:15	93.6	93.6	93.1	32	59.2	3	9	112	0.00	29.869 
16:20	93.4	93.4	93.6	34	60.8	3	7	90	0.00	29.869 
16:25	93.6	93.6	92.8	31	58.4	1	6	112	0.00	29.869 
16:30	94.0	94.0	93.7	32	59.6	2	6	112	0.00	29.866 
16:35	93.8	93.8	93.8	33	60.3	2	6	90	0.00	29.866 
16:40	94.0	94.0	93.0	30	57.8	1	3	68	0.00	29.866 
16:45	94.0	94.0	93.3	31	58.7	2	6	90	0.00	29.869 
16:50	94.0	94.0	92.7	29	56.8	2	6	90	0.00	29.869 
16:55	94.0	94.0	93.0	30	57.8	1	11	22	0.00	29.869 
17:00	93.6	93.6	92.1	29	56.5	2	8	112	0.00	29.861 
17:05	93.6	93.6	92.1	29	56.5	2	9	90	0.00	29.861 
17:10	93.6	93.6	91.8	28	55.5	2	6	90	0.00	29.861 
17:15	93.6	93.6	91.8	28	55.5	2	6	112	0.00	29.862 
17:20	93.4	93.4	91.6	28	55.4	3	6	90	0.00	29.862 
17:25	93.6	93.6	91.5	27	54.5	2	4	90	0.00	29.862 
17:30	93.6	93.6	91.8	28	55.5	2	5	90	0.00	29.861 
17:35	93.4	93.4	91.3	27	54.4	3	7	68	0.00	29.861 
17:40	93.2	93.2	91.0	27	54.2	3	7	68	0.00	29.861 
17:45	93.2	93.2	91.0	27	54.2	2	4	112	0.00	29.861 
17:50	93.2	93.2	91.3	28	55.2	1	5	68	0.00	29.861 
17:55	93.2	93.2	91.3	28	55.2	1	3	315	0.00	29.861 
18:00	93.2	93.2	91.0	27	54.2	1	5	68	0.00	29.860 
18:05	92.9	92.9	90.7	27	53.9	2	4	112	0.00	29.860 
18:10	92.7	92.7	90.7	28	54.8	1	4	112	0.00	29.860 
18:15	92.7	92.7	90.7	28	54.8	1	4	112	0.00	29.861 
18:20	92.3	92.3	90.2	28	54.4	1	4	135	0.00	29.861 
18:25	92.3	92.3	90.5	29	55.4	1	4	135	0.00	29.861 
18:30	92.1	92.1	90.5	30	56.2	1	2	135	0.00	29.861 
18:35	91.8	91.8	89.8	29	55.0	1	3	135	0.00	29.861 
18:40	91.6	91.6	89.6	29	54.8	2	4	90	0.00	29.861 
18:45	91.6	91.6	89.4	28	53.8	1	3	135	0.00	29.861 
18:50	91.4	91.4	89.6	30	55.6	1	2	225	0.00	29.861 
18:55	91.4	91.4	89.9	31	56.5	1	3	112	0.00	29.861 
19:00	91.2	91.2	89.6	31	56.3	1	3	68	0.00	29.864 
19:05	91.2	91.2	89.9	32	57.2	1	4	0	0.00	29.864 
19:10	91.0	91.0	89.6	32	57.0	1	3	135	0.00	29.864 
19:15	90.7	90.7	89.2	32	56.7	1	2	135	0.00	29.861 
19:20	90.7	90.7	89.5	33	57.6	0	2	135	0.00	29.861 
19:25	90.5	90.5	89.3	33	57.4	1	3	135	0.00	29.861 
19:30	90.3	90.3	88.7	32	56.4	1	4	112	0.00	29.862 
19:35	90.1	90.1	88.5	32	56.2	0	2	112	0.00	29.862 
19:40	89.9	89.9	88.3	32	56.0	0	2	112	0.00	29.862 
19:45	89.7	89.7	88.0	32	55.9	0	1	112	0.00	29.863 
19:50	89.5	89.5	88.0	33	56.6	0	2	112	0.00	29.863 
19:55	89.3	89.3	88.0	34	57.2	0	2	112	0.00	29.863 
20:00	89.0	89.0	87.7	34	56.9	0	1	112	0.00	29.861 
20:05	88.8	88.8	87.6	35	57.6	0	1	112	0.00	29.861 
20:10	88.4	88.4	87.4	36	58.0	0	1	112	0.00	29.861 
20:15	88.0	88.0	87.1	37	58.4	0	1	112	0.00	29.859 
20:20	87.6	87.6	86.7	37	58.1	0	1	112	0.00	29.859 
20:25	87.4	87.4	86.7	38	58.6	0	0	---	0.00	29.859 
20:30	87.0	87.0	86.2	38	58.3	0	1	112	0.00	29.861 
20:35	86.7	86.7	86.0	39	58.7	0	1	112	0.00	29.861 
20:40	86.3	86.3	85.6	39	58.4	0	1	112	0.00	29.861 
20:45	85.9	85.9	85.1	39	58.0	0	1	112	0.00	29.864 
20:50	85.7	85.7	85.1	40	58.6	0	0	---	0.00	29.864 
20:55	85.1	85.1	84.4	40	58.0	0	0	---	0.00	29.864 
21:00	84.7	84.7	84.2	41	58.4	0	0	---	0.00	29.874 
21:05	84.3	84.3	84.1	43	59.3	0	0	---	0.00	29.874 
21:10	84.0	84.0	83.8	43	59.1	0	1	112	0.00	29.874 
21:15	83.8	83.8	83.6	43	58.9	0	1	112	0.00	29.873 
21:20	83.6	83.6	83.5	44	59.3	0	1	112	0.00	29.873 
21:25	83.4	83.4	83.5	45	59.8	0	1	112	0.00	29.873 
21:30	83.4	83.4	83.7	46	60.4	0	0	---	0.00	29.877 
21:35	83.0	83.0	83.4	47	60.7	0	0	---	0.00	29.877 
21:40	82.8	82.8	83.5	49	61.7	0	0	---	0.00	29.877 
21:45	82.6	82.6	83.4	50	62.0	0	0	---	0.00	29.887 
21:50	82.4	82.4	83.4	51	62.4	0	0	---	0.00	29.887 
21:55	82.2	82.2	83.1	51	62.2	0	0	---	0.00	29.887 
22:00	81.8	81.8	82.8	52	62.4	0	0	---	0.00	29.892 
22:05	81.6	81.6	82.9	54	63.3	0	0	---	0.00	29.892 
22:10	81.4	81.4	82.7	54	63.1	0	0	---	0.00	29.892 
22:15	81.2	81.2	82.6	55	63.5	0	0	---	0.00	29.892 
22:20	81.1	81.1	82.5	55	63.4	0	0	---	0.00	29.892 
22:25	80.9	80.9	82.4	56	63.7	0	0	---	0.00	29.892 
22:30	80.7	80.7	82.3	57	64.0	0	0	---	0.00	29.890 
22:35	80.3	80.3	81.9	58	64.2	0	0	---	0.00	29.890 
22:40	80.1	80.1	81.8	59	64.5	0	0	---	0.00	29.890 
22:45	79.8	79.8	81.6	60	64.7	0	0	---	0.00	29.889 
22:50	79.4	79.4	81.2	61	64.8	0	0	---	0.00	29.889 
22:55	79.0	79.0	80.8	61	64.4	0	0	---	0.00	29.889 
23:00	78.8	78.8	80.6	62	64.7	0	0	---	0.00	29.888 
23:05	78.6	78.6	80.4	63	64.9	0	0	---	0.00	29.888 
23:10	78.5	78.5	80.4	64	65.3	0	0	---	0.00	29.888 
23:15	78.1	78.1	79.9	64	64.9	0	0	---	0.00	29.886 
23:20	77.9	77.9	79.7	65	65.2	0	0	---	0.00	29.886 
23:25	77.7	77.7	79.6	66	65.4	0	0	---	0.00	29.886 
23:30	77.4	77.4	79.2	67	65.6	0	0	---	0.00	29.887 
23:35	77.2	77.2	79.0	67	65.4	0	0	---	0.00	29.887 
23:40	77.2	77.2	79.0	67	65.4	0	0	---	0.00	29.887 
23:45	77.2	77.2	79.0	67	65.4	0	1	112	0.00	29.888 
23:50	77.4	77.4	79.2	67	65.6	0	1	112	0.00	29.888 
23:55	77.6	77.6	79.4	66	65.3	0	1	112	0.00	29.888 

CoCoRaHS
IN-AL-39
A2 Web Hosting
Creative Commons License
GoDaddy
search engine by freefind advanced

loaded 2018-11-20 08:44:40 • last modified 2010-11-18 10:43:29
Privacy PolicyDisclaimer
• wx.awcolley.com is powered by PmWiki v.2002016 •
• all content (unless otherwise noted) © 2018 A W Colley